Time;durP1;ratioP1;P1;durP2;ratioP2;P2;SDS_P1;SDS_P2;PMS_P1;PMS_P2;Temp;Humidity;BMP_temperature;BMP_pressure;BME280_temperature;BME280_humidity;BME280_pressure;Samples;Min_cycle;Max_cycle;Signal;HPM_P1;HPM_P2
2021/10/10 00:00:33;;;;;;;18.43;12.53;;;;;;;10.66;69.55;101369.66;4857880;29;20418;-74
2021/10/10 00:02:58;;;;;;;16.95;11.50;;;;;;;10.62;69.95;101373.03;4859019;29;20410;-74
2021/10/10 00:05:23;;;;;;;17.70;11.50;;;;;;;10.61;70.07;101366.78;4859106;29;20905;-74
2021/10/10 00:07:49;;;;;;;15.23;11.47;;;;;;;10.60;70.52;101365.13;4859052;29;20501;-74
2021/10/10 00:10:15;;;;;;;17.47;12.93;;;;;;;10.59;70.16;101366.16;4867443;29;20412;-74
2021/10/10 00:12:42;;;;;;;16.90;11.63;;;;;;;10.60;70.39;101365.13;4862827;29;20425;-74
2021/10/10 00:15:11;;;;;;;16.53;11.60;;;;;;;10.59;70.25;101373.47;4844517;29;20414;-74
2021/10/10 00:17:36;;;;;;;16.25;12.60;;;;;;;10.57;69.91;101373.69;4841864;29;20426;-74
2021/10/10 00:20:04;;;;;;;17.87;11.43;;;;;;;10.55;70.20;101366.81;4859294;29;20774;-74
2021/10/10 00:22:29;;;;;;;18.17;11.25;;;;;;;10.53;70.19;101367.06;4859157;29;20517;-74
2021/10/10 00:24:55;;;;;;;15.83;11.70;;;;;;;10.52;70.08;101373.53;4858780;29;20473;-74
2021/10/10 00:27:21;;;;;;;14.13;10.57;;;;;;;10.52;70.10;101370.81;4858484;29;20751;-74
2021/10/10 00:29:47;;;;;;;14.82;10.70;;;;;;;10.49;69.98;101365.00;4842296;29;20441;-75
2021/10/10 00:32:12;;;;;;;18.33;11.47;;;;;;;10.46;69.65;101362.75;4859198;29;20506;-74
2021/10/10 00:34:37;;;;;;;13.67;10.80;;;;;;;10.45;69.75;101363.78;4864295;29;20418;-74
2021/10/10 00:37:03;;;;;;;14.13;10.83;;;;;;;10.41;69.81;101360.69;4858888;29;20537;-74
2021/10/10 00:39:28;;;;;;;15.83;11.20;;;;;;;10.39;69.89;101357.38;4858538;29;20414;-74
2021/10/10 00:41:53;;;;;;;15.80;11.03;;;;;;;10.34;69.86;101363.47;4842230;29;20421;-74
2021/10/10 00:44:19;;;;;;;13.70;10.73;;;;;;;10.35;69.73;101372.44;4846419;29;20434;-74
2021/10/10 00:46:44;;;;;;;15.30;11.37;;;;;;;10.33;70.13;101361.00;4858880;29;20424;-74
2021/10/10 00:49:09;;;;;;;15.33;10.77;;;;;;;10.27;70.06;101365.38;4858255;29;20454;-74
2021/10/10 00:51:37;;;;;;;12.03;9.73;;;;;;;10.23;70.02;101364.19;4858866;29;20425;-74
2021/10/10 00:54:06;;;;;;;14.87;10.57;;;;;;;10.24;70.50;101371.25;4858689;29;20752;-74
2021/10/10 00:56:32;;;;;;;15.55;10.50;;;;;;;10.26;70.22;101368.34;4858933;29;20425;-74
2021/10/10 00:58:59;;;;;;;14.77;10.43;;;;;;;10.29;69.89;101371.44;4843854;29;20425;-75
2021/10/10 01:01:26;;;;;;;17.08;11.38;;;;;;;10.22;70.19;101365.25;4862331;29;20482;-74
2021/10/10 01:03:52;;;;;;;15.82;10.45;;;;;;;10.14;70.00;101362.78;4863572;29;22216;-74
2021/10/10 01:06:17;;;;;;;20.08;11.50;;;;;;;10.06;69.99;101373.88;4861396;29;20422;-74
2021/10/10 01:08:43;;;;;;;15.57;10.90;;;;;;;10.03;70.21;101366.19;4861831;29;20442;-74
2021/10/10 01:11:10;;;;;;;14.03;10.33;;;;;;;10.08;70.47;101370.94;4862081;29;20422;-74
2021/10/10 01:13:36;;;;;;;15.43;10.77;;;;;;;10.14;69.96;101370.09;4845540;29;20973;-74
2021/10/10 01:16:02;;;;;;;16.58;11.55;;;;;;;10.11;70.13;101365.09;4862055;29;20509;-74
2021/10/10 01:18:27;;;;;;;18.75;10.65;;;;;;;10.12;70.00;101359.44;4861512;29;20416;-74
2021/10/10 01:20:54;;;;;;;13.20;10.02;;;;;;;10.05;69.70;101360.53;4862322;29;20457;-74
2021/10/10 01:23:20;;;;;;;18.10;10.38;;;;;;;9.98;70.18;101365.19;4861224;29;20459;-74
2021/10/10 01:25:45;;;;;;;13.75;10.23;;;;;;;9.91;70.30;101365.25;4861397;29;20457;-74
2021/10/10 01:28:11;;;;;;;14.30;10.10;;;;;;;9.89;70.63;101362.75;4844564;29;20457;-74
2021/10/10 01:30:36;;;;;;;12.68;9.90;;;;;;;9.94;70.44;101362.09;4861684;29;20790;-74
2021/10/10 01:33:06;;;;;;;14.43;10.77;;;;;;;9.91;70.09;101355.22;4861297;29;20414;-74
2021/10/10 01:35:31;;;;;;;12.60;10.17;;;;;;;9.90;70.29;101361.69;4861831;29;20773;-74
2021/10/10 01:37:57;;;;;;;16.50;9.67;;;;;;;9.93;70.20;101363.13;4861094;29;20406;-74
2021/10/10 01:40:25;;;;;;;15.20;10.40;;;;;;;9.93;69.81;101355.00;4861445;29;20470;-74
2021/10/10 01:42:50;;;;;;;16.42;9.70;;;;;;;9.90;69.91;101356.28;4861537;29;20418;-74
2021/10/10 01:45:18;;;;;;;16.42;10.77;;;;;;;9.89;69.81;101349.19;4861157;29;20446;-74
2021/10/10 01:47:43;;;;;;;15.37;10.97;;;;;;;9.84;69.83;101353.63;4861376;29;20425;-74
2021/10/10 01:50:10;;;;;;;16.93;10.10;;;;;;;9.81;70.05;101359.47;4861036;29;20414;-74
2021/10/10 01:52:37;;;;;;;14.63;9.98;;;;;;;9.82;70.19;101355.69;4861278;29;20444;-74
2021/10/10 01:55:03;;;;;;;14.48;10.02;;;;;;;9.80;70.00;101352.41;4860553;29;20446;-74
2021/10/10 01:57:28;;;;;;;18.17;10.87;;;;;;;9.77;70.45;101347.41;4860085;29;20539;-74
2021/10/10 01:59:54;;;;;;;15.57;10.30;;;;;;;9.78;70.21;101349.09;4844846;29;20865;-75
2021/10/10 02:02:19;;;;;;;14.65;10.88;;;;;;;9.71;69.90;101356.41;4843796;29;20925;-74
2021/10/10 02:04:45;;;;;;;24.73;11.50;;;;;;;9.66;69.93;101348.94;4861075;29;20469;-74
2021/10/10 02:07:10;;;;;;;22.37;11.03;;;;;;;9.64;70.69;101348.34;4860805;29;20494;-74
2021/10/10 02:09:36;;;;;;;15.17;10.10;;;;;;;9.67;70.33;101347.06;4860504;29;20445;-74
2021/10/10 02:12:02;;;;;;;16.33;10.50;;;;;;;9.59;70.32;101350.84;4861865;29;20942;-74
2021/10/10 02:14:27;;;;;;;13.03;10.43;;;;;;;9.51;70.64;101345.69;4860859;29;20422;-74
2021/10/10 02:16:53;;;;;;;14.97;11.00;;;;;;;9.54;70.97;101349.84;4860619;29;20422;-74
2021/10/10 02:19:18;;;;;;;14.17;9.93;;;;;;;9.53;70.77;101351.72;4860333;29;20414;-74
2021/10/10 02:21:43;;;;;;;15.73;10.43;;;;;;;9.50;70.42;101344.03;4861159;29;20498;-74
2021/10/10 02:24:08;;;;;;;18.88;10.35;;;;;;;9.48;70.75;101342.59;4860380;29;20807;-74
2021/10/10 02:26:34;;;;;;;13.30;10.70;;;;;;;9.42;70.44;101336.16;4860947;29;20410;-74
2021/10/10 02:28:59;;;;;;;14.55;10.10;;;;;;;9.45;70.95;101338.41;4843925;29;20414;-74
2021/10/10 02:31:24;;;;;;;13.90;10.47;;;;;;;9.46;70.42;101339.25;4860637;29;20425;-74
2021/10/10 02:33:50;;;;;;;13.30;9.70;;;;;;;9.39;70.66;101342.00;4860235;29;20421;-74
2021/10/10 02:36:15;;;;;;;14.60;10.23;;;;;;;9.29;70.90;101345.16;4860625;29;20513;-74
2021/10/10 02:38:40;;;;;;;14.10;10.27;;;;;;;9.26;70.64;101337.47;4859371;29;20921;-74
2021/10/10 02:41:05;;;;;;;17.80;10.37;;;;;;;9.23;70.64;101342.50;4860481;29;20446;-75
2021/10/10 02:43:31;;;;;;;11.13;9.53;;;;;;;9.24;71.02;101336.03;4860085;29;20488;-74
2021/10/10 02:45:58;;;;;;;17.90;10.80;;;;;;;9.23;70.31;101337.06;4860213;29;21277;-74
2021/10/10 02:48:23;;;;;;;17.37;10.20;;;;;;;9.18;70.57;101337.75;4860285;29;20505;-74
2021/10/10 02:50:48;;;;;;;17.00;9.37;;;;;;;9.16;70.49;101337.09;4859815;29;20434;-74
2021/10/10 02:53:13;;;;;;;14.30;9.43;;;;;;;9.20;70.44;101329.41;4860323;29;20426;-74
2021/10/10 02:55:39;;;;;;;16.33;10.27;;;;;;;9.18;70.71;101334.19;4860167;29;20468;-74
2021/10/10 02:58:04;;;;;;;16.20;10.73;;;;;;;9.24;70.91;101339.59;4866892;29;20413;-74
2021/10/10 03:00:29;;;;;;;15.87;10.30;;;;;;;9.18;70.15;101339.59;4859882;29;20940;-74
2021/10/10 03:02:56;;;;;;;13.40;9.80;;;;;;;9.14;70.14;101338.38;4859904;29;20414;-74
2021/10/10 03:05:21;;;;;;;18.75;11.20;;;;;;;9.07;70.29;101334.84;4859452;29;20513;-74
2021/10/10 03:07:48;;;;;;;14.03;10.50;;;;;;;8.97;70.62;101329.91;4860378;29;20502;-74
2021/10/10 03:10:13;;;;;;;14.57;9.73;;;;;;;8.94;70.90;101329.50;4859964;29;20414;-74
2021/10/10 03:12:38;;;;;;;15.40;10.30;;;;;;;8.94;70.82;101333.03;4848788;29;20747;-74
2021/10/10 03:15:04;;;;;;;21.43;10.90;;;;;;;8.97;70.95;101326.38;4859675;29;20421;-74
2021/10/10 03:17:30;;;;;;;16.00;11.27;;;;;;;8.95;70.86;101325.75;4860910;29;20441;-74
2021/10/10 03:19:55;;;;;;;13.63;10.03;;;;;;;8.89;71.01;101322.03;4859277;29;20908;-74
2021/10/10 03:22:20;;;;;;;17.67;11.07;;;;;;;8.90;70.89;101329.09;4861633;29;20414;-74
2021/10/10 03:24:45;;;;;;;15.93;9.90;;;;;;;8.81;71.15;101331.22;4859213;29;20802;-74
2021/10/10 03:27:11;;;;;;;14.30;10.13;;;;;;;8.81;70.91;101328.50;4859551;29;20422;-74
2021/10/10 03:29:36;;;;;;;14.27;9.97;;;;;;;8.84;70.89;101322.66;4859141;29;20771;-74
2021/10/10 03:32:01;;;;;;;15.40;11.00;;;;;;;8.93;70.77;101325.97;4859119;29;20493;-74
2021/10/10 03:34:27;;;;;;;17.77;9.90;;;;;;;9.02;70.75;101327.41;4842639;29;20418;-74
2021/10/10 03:36:52;;;;;;;14.55;9.93;;;;;;;9.07;70.67;101327.56;4859504;29;20418;-74
2021/10/10 03:39:18;;;;;;;15.83;10.93;;;;;;;9.09;70.87;101330.09;4859065;29;20422;-74
2021/10/10 03:41:43;;;;;;;15.30;9.63;;;;;;;9.11;70.21;101323.41;4859387;29;20427;-74
2021/10/10 03:44:08;;;;;;;16.63;10.73;;;;;;;9.14;70.04;101324.84;4859200;29;20437;-74
2021/10/10 03:46:33;;;;;;;13.17;10.60;;;;;;;9.11;70.01;101320.72;4860271;29;20430;-74
2021/10/10 03:48:59;;;;;;;15.87;10.77;;;;;;;9.13;69.81;101324.00;4859144;29;20414;-74
2021/10/10 03:51:24;;;;;;;12.97;9.83;;;;;;;9.11;69.87;101328.81;4859007;29;20466;-74
2021/10/10 03:56:30;;;;;;;15.38;9.63;;;;;;;9.06;70.05;101328.63;4862294;29;20893;-74
2021/10/10 03:58:55;;;;;;;13.70;9.80;;;;;;;9.07;69.90;101324.88;4858740;29;20482;-74
2021/10/10 04:01:21;;;;;;;16.17;9.60;;;;;;;9.03;69.66;101322.81;4842736;29;20444;-74
2021/10/10 04:03:47;;;;;;;14.35;10.35;;;;;;;9.06;69.87;101320.50;4865329;29;20429;-74
2021/10/10 04:06:12;;;;;;;19.10;10.13;;;;;;;9.05;69.78;101326.13;4859038;29;20906;-74
2021/10/10 04:08:43;;;;;;;15.97;9.87;;;;;;;8.95;69.19;101332.00;4842422;29;20442;-74
2021/10/10 04:11:08;;;;;;;15.50;9.98;;;;;;;8.94;69.37;101324.91;4857077;29;20443;-74
2021/10/10 04:13:34;;;;;;;13.00;9.80;;;;;;;8.92;69.60;101332.44;4858095;29;20415;-74
2021/10/10 04:15:59;;;;;;;14.30;10.33;;;;;;;8.91;70.03;101328.06;4859819;29;20911;-74
2021/10/10 04:18:24;;;;;;;16.03;10.03;;;;;;;8.93;70.08;101333.22;4842449;29;20485;-74
2021/10/10 04:20:49;;;;;;;12.97;9.63;;;;;;;8.92;69.63;101328.88;4858599;29;20418;-74
2021/10/10 04:23:15;;;;;;;16.60;9.93;;;;;;;8.85;69.86;101328.91;4857940;29;20774;-74
2021/10/10 04:25:40;;;;;;;13.60;9.50;;;;;;;8.77;69.85;101334.53;4840982;29;20429;-74
2021/10/10 04:28:05;;;;;;;15.70;9.45;;;;;;;8.79;69.75;101327.88;4858144;29;20464;-74
2021/10/10 04:30:31;;;;;;;14.40;9.43;;;;;;;8.80;69.94;101339.50;4857598;29;20815;-74
2021/10/10 04:32:56;;;;;;;16.50;9.90;;;;;;;8.79;69.59;101333.28;4858248;29;20561;-74
2021/10/10 04:35:21;;;;;;;16.03;9.70;;;;;;;8.76;69.59;101341.81;4841753;29;20406;-74
2021/10/10 04:37:47;;;;;;;14.07;9.77;;;;;;;8.78;69.95;101341.59;4858606;29;20425;-74
2021/10/10 04:40:12;;;;;;;13.60;9.17;;;;;;;8.75;69.55;101342.88;4841527;29;20429;-74
2021/10/10 04:42:38;;;;;;;15.70;9.97;;;;;;;8.69;69.51;101343.69;4857992;29;20914;-74
2021/10/10 04:45:05;;;;;;;11.93;9.65;;;;;;;8.61;69.42;101332.28;4857619;29;20454;-74
2021/10/10 04:47:30;;;;;;;13.43;9.10;;;;;;;8.60;70.29;101328.75;4858619;29;20962;-74
2021/10/10 04:49:56;;;;;;;12.17;9.33;;;;;;;8.65;69.79;101331.66;4856742;29;20422;-74
2021/10/10 04:52:21;;;;;;;17.83;9.70;;;;;;;8.64;69.97;101327.28;4857184;29;20790;-74
2021/10/10 04:54:47;;;;;;;10.67;9.20;;;;;;;8.66;69.76;101335.19;4856351;29;20478;-74
2021/10/10 04:57:16;;;;;;;14.38;9.90;;;;;;;8.65;69.56;101328.13;4850348;29;20486;-74
2021/10/10 04:59:49;;;;;;;14.63;9.00;;;;;;;8.66;69.33;101332.50;4841043;29;20868;-74
2021/10/10 05:02:14;;;;;;;13.82;9.35;;;;;;;8.58;69.29;101336.25;4855020;29;20470;-74
2021/10/10 05:04:39;;;;;;;14.50;8.87;;;;;;;8.56;69.76;101332.09;4857907;29;20718;-74
2021/10/10 05:07:05;;;;;;;14.00;9.20;;;;;;;8.56;69.58;101334.81;4857247;29;20486;-74
2021/10/10 05:09:30;;;;;;;16.73;10.03;;;;;;;8.60;69.40;101336.00;4859036;29;20413;-74
2021/10/10 05:11:55;;;;;;;14.60;9.10;;;;;;;8.57;69.05;101339.13;4841593;29;20454;-75
2021/10/10 05:14:20;;;;;;;13.73;9.30;;;;;;;8.57;69.49;101339.13;4857640;29;20418;-74
2021/10/10 05:16:46;;;;;;;21.63;9.80;;;;;;;8.59;69.46;101335.22;4857935;29;20767;-74
2021/10/10 05:19:11;;;;;;;15.03;9.77;;;;;;;8.58;69.10;101340.81;4856790;29;20422;-74
2021/10/10 05:21:36;;;;;;;14.10;9.23;;;;;;;8.60;69.59;101347.66;4857757;29;20977;-74
2021/10/10 05:24:01;;;;;;;15.43;9.47;;;;;;;8.59;69.28;101348.72;4840598;29;20422;-74
2021/10/10 05:26:27;;;;;;;14.77;8.97;;;;;;;8.59;69.43;101347.88;4856925;29;20473;-74
2021/10/10 05:28:52;;;;;;;15.83;10.33;;;;;;;8.56;69.16;101357.22;4856356;29;20441;-74
2021/10/10 05:31:17;;;;;;;13.30;9.13;;;;;;;8.58;69.58;101351.63;4840136;29;20473;-75
2021/10/10 05:33:43;;;;;;;14.30;8.90;;;;;;;8.58;69.29;101357.84;4855732;29;20437;-74
2021/10/10 05:36:08;;;;;;;12.82;8.75;;;;;;;8.57;69.76;101358.88;4856228;29;20826;-74
2021/10/10 05:38:34;;;;;;;15.57;9.20;;;;;;;8.58;69.40;101352.44;4857065;29;20414;-74
2021/10/10 05:40:59;;;;;;;15.80;9.27;;;;;;;8.60;69.10;101350.34;4856482;29;20467;-74
2021/10/10 05:43:24;;;;;;;13.73;8.97;;;;;;;8.61;68.88;101349.31;4854445;29;20953;-74
2021/10/10 05:45:50;;;;;;;14.30;9.03;;;;;;;8.52;69.10;101364.09;4859918;29;20445;-74
2021/10/10 05:48:15;;;;;;;13.80;8.90;;;;;;;8.55;69.48;101368.25;4858404;29;20498;-74
2021/10/10 05:50:40;;;;;;;12.53;9.50;;;;;;;8.53;69.31;101365.75;4854465;29;20437;-75
2021/10/10 05:53:07;;;;;;;12.03;9.50;;;;;;;8.54;68.88;101372.81;4858895;29;20410;-74
2021/10/10 05:55:41;;;;;;;14.20;9.10;;;;;;;8.54;69.33;101369.28;4856361;29;20420;-74
2021/10/10 05:58:09;;;;;;;15.07;9.90;;;;;;;8.55;69.07;101373.66;4858502;29;20422;-74
2021/10/10 06:00:34;;;;;;;13.48;10.25;;;;;;;8.51;68.92;101373.25;4858522;29;20422;-74
2021/10/10 06:02:59;;;;;;;14.07;10.03;;;;;;;8.48;69.22;101375.53;4842183;29;20993;-74
2021/10/10 06:05:25;;;;;;;16.20;10.38;;;;;;;8.52;69.21;101377.63;4842072;29;20517;-74
2021/10/10 06:07:50;;;;;;;16.27;10.43;;;;;;;8.55;69.67;101371.78;4842893;29;20426;-74
2021/10/10 06:10:16;;;;;;;15.73;10.50;;;;;;;8.60;69.34;101369.28;4862073;29;20462;-74
2021/10/10 06:12:41;;;;;;;14.98;11.20;;;;;;;8.56;68.83;101373.44;4859232;29;20433;-74
2021/10/10 06:15:08;;;;;;;14.60;11.20;;;;;;;8.52;69.13;101374.91;4859943;29;20724;-74
2021/10/10 06:17:35;;;;;;;15.93;11.35;;;;;;;8.53;69.05;101373.03;4861709;29;20928;-74
2021/10/10 06:20:01;;;;;;;18.25;11.38;;;;;;;8.46;68.76;101374.91;4859362;29;20419;-74
2021/10/10 06:22:26;;;;;;;14.57;9.98;;;;;;;8.37;69.28;101376.13;4843492;29;20417;-74
2021/10/10 06:24:52;;;;;;;15.47;10.60;;;;;;;8.35;69.09;101381.75;4866182;29;20491;-74
2021/10/10 06:27:17;;;;;;;17.57;10.53;;;;;;;8.34;69.28;101375.53;4855269;29;20521;-74
2021/10/10 06:29:47;;;;;;;20.93;11.33;;;;;;;8.37;69.73;101374.28;4859526;29;20421;-73
2021/10/10 06:32:12;;;;;;;16.65;10.35;;;;;;;8.38;68.95;101369.72;4861161;29;20417;-74
2021/10/10 06:34:38;;;;;;;13.68;10.60;;;;;;;8.38;69.63;101377.81;4862955;29;22056;-74
2021/10/10 06:37:03;;;;;;;17.42;11.23;;;;;;;8.36;69.29;101379.91;4859312;29;20402;-74
2021/10/10 06:39:28;;;;;;;15.63;10.70;;;;;;;8.33;69.58;101373.06;4858310;29;20470;-74
2021/10/10 06:41:54;;;;;;;15.65;10.68;;;;;;;8.30;69.31;101365.34;4859119;29;20424;-74
2021/10/10 06:44:21;;;;;;;13.00;10.30;;;;;;;8.35;69.49;101365.56;4859118;29;20419;-74
2021/10/10 06:46:46;;;;;;;14.37;10.60;;;;;;;8.39;69.10;101365.97;4858414;29;20422;-74
2021/10/10 06:49:13;;;;;;;14.60;10.13;;;;;;;8.38;69.44;101365.16;4860130;29;20895;-74
2021/10/10 06:51:39;;;;;;;15.82;10.95;;;;;;;8.38;69.48;101372.41;4858363;29;20486;-75
2021/10/10 06:54:04;;;;;;;17.50;12.00;;;;;;;8.46;68.95;101374.91;4857628;29;20426;-75
2021/10/10 06:56:29;;;;;;;13.82;10.80;;;;;;;8.50;68.68;101378.84;4861940;29;20505;-75
2021/10/10 06:58:55;;;;;;;19.57;11.07;;;;;;;8.56;68.93;101376.13;4859059;29;20453;-74
2021/10/10 07:01:20;;;;;;;23.47;11.33;;;;;;;8.61;69.35;101378.22;4858787;29;20421;-73
2021/10/10 07:03:45;;;;;;;18.25;11.10;;;;;;;8.70;68.49;101379.66;4865092;29;20512;-74
2021/10/10 07:06:10;;;;;;;13.20;10.47;;;;;;;8.81;68.22;101384.44;4853790;29;20517;-74
2021/10/10 07:08:36;;;;;;;19.85;10.80;;;;;;;8.90;68.18;101377.75;4856691;29;20788;-74
2021/10/10 07:11:01;;;;;;;16.57;10.87;;;;;;;8.92;68.21;101389.19;4855352;29;20474;-74
2021/10/10 07:13:26;;;;;;;17.00;10.60;;;;;;;9.01;67.72;101387.09;4845771;29;20799;-74
2021/10/10 07:15:54;;;;;;;14.77;10.73;;;;;;;9.08;67.97;101382.50;4854459;29;20453;-74
2021/10/10 07:18:28;;;;;;;18.85;11.05;;;;;;;9.13;67.65;101383.50;4855647;29;20494;-74
2021/10/10 07:21:17;;;;;;;14.25;10.70;;;;;;;9.16;67.61;101388.50;4858059;29;20406;-74
2021/10/10 07:26:26;;;;;;;18.42;11.70;;;;;;;9.19;67.59;101374.53;4859542;29;20486;-74
2021/10/10 07:28:51;;;;;;;18.50;10.97;;;;;;;9.13;67.99;101382.66;4855862;29;20421;-74
2021/10/10 07:31:17;;;;;;;18.60;10.43;;;;;;;9.12;68.05;101384.53;4840129;29;20418;-75
2021/10/10 07:33:43;;;;;;;19.92;10.80;;;;;;;9.17;68.40;101384.75;4854940;29;20426;-74
2021/10/10 07:36:09;;;;;;;13.63;10.43;;;;;;;9.23;68.24;101383.06;4856998;29;20422;-74
2021/10/10 07:38:34;;;;;;;14.30;10.43;;;;;;;9.22;67.97;101381.41;4858235;29;20425;-74
2021/10/10 07:41:00;;;;;;;17.33;11.57;;;;;;;9.23;68.03;101392.00;4840763;29;20486;-74
2021/10/10 07:43:26;;;;;;;19.08;11.20;;;;;;;9.29;68.62;101382.19;4858977;29;20917;-74
2021/10/10 07:45:52;;;;;;;16.92;11.20;;;;;;;9.34;68.28;101385.09;4858228;29;20438;-74
2021/10/10 07:48:19;;;;;;;17.27;11.23;;;;;;;9.42;68.48;101390.25;4839593;29;20490;-74
2021/10/10 07:50:46;;;;;;;16.77;11.23;;;;;;;9.45;68.03;101386.31;4842299;29;20430;-74
2021/10/10 07:53:15;;;;;;;19.35;11.20;;;;;;;9.43;67.95;101396.50;4856441;29;20418;-74
2021/10/10 07:55:40;;;;;;;20.60;11.75;;;;;;;9.46;68.28;101391.50;4858346;29;20414;-74
2021/10/10 07:58:05;;;;;;;17.43;11.83;;;;;;;9.46;68.56;101386.09;4858606;29;20419;-74
2021/10/10 08:00:31;;;;;;;15.20;10.57;;;;;;;9.51;68.96;101389.00;4848907;29;20442;-75
2021/10/10 08:02:57;;;;;;;15.15;10.90;;;;;;;9.58;68.52;101381.66;4857394;29;20438;-74
2021/10/10 08:05:24;;;;;;;16.37;11.37;;;;;;;9.64;68.75;101377.25;4850730;29;20782;-74
2021/10/10 08:07:50;;;;;;;13.77;10.25;;;;;;;9.65;68.52;101382.44;4856793;29;20415;-74
2021/10/10 08:10:16;;;;;;;17.90;11.05;;;;;;;9.69;69.01;101382.84;4845625;29;20475;-75
2021/10/10 08:12:41;;;;;;;15.27;11.70;;;;;;;9.73;68.42;101389.50;4855453;29;20470;-74
2021/10/10 08:15:07;;;;;;;16.63;11.87;;;;;;;9.79;68.51;101389.44;4838948;29;20422;-74
2021/10/10 08:17:33;;;;;;;14.00;11.20;;;;;;;9.86;68.24;101382.13;4845284;29;20453;-75
2021/10/10 08:19:58;;;;;;;16.67;11.20;;;;;;;9.94;68.37;101388.34;4855534;29;20446;-74
2021/10/10 08:22:24;;;;;;;16.30;10.50;;;;;;;9.98;68.56;101390.38;4851821;29;20502;-75
2021/10/10 08:24:49;;;;;;;19.42;11.65;;;;;;;10.02;68.52;101388.91;4848052;29;20422;-75
2021/10/10 08:27:14;;;;;;;15.35;10.50;;;;;;;10.07;68.81;101390.97;4847151;29;21673;-75
2021/10/10 08:29:40;;;;;;;19.77;11.00;;;;;;;10.09;68.76;101392.38;4845330;29;20418;-74
2021/10/10 08:32:05;;;;;;;17.25;11.50;;;;;;;10.13;68.66;101388.19;4850422;29;20422;-74
2021/10/10 08:34:30;;;;;;;18.60;11.70;;;;;;;10.21;68.05;101384.41;4857809;29;20417;-74
2021/10/10 08:36:56;;;;;;;18.17;12.20;;;;;;;10.26;68.14;101396.25;4849995;29;20426;-74
2021/10/10 08:39:27;;;;;;;14.87;10.33;;;;;;;10.43;67.26;101388.41;4853591;29;20433;-76
2021/10/10 08:41:57;;;;;;;15.13;11.35;;;;;;;10.50;67.35;101385.66;4856130;29;20422;-74
2021/10/10 08:44:30;;;;;;;16.75;11.02;;;;;;;10.54;67.15;101386.88;4859543;29;20790;-75
2021/10/10 08:47:01;;;;;;;15.73;11.35;;;;;;;10.52;67.03;101387.09;4858342;29;20901;-74
2021/10/10 08:49:28;;;;;;;15.13;10.90;;;;;;;10.61;66.68;101391.16;4855087;29;20465;-75
2021/10/10 08:51:54;;;;;;;14.20;10.55;;;;;;;10.75;66.07;101386.44;4851566;29;20420;-75
2021/10/10 08:54:19;;;;;;;14.68;10.30;;;;;;;10.67;66.22;101390.28;4851409;29;20498;-74
2021/10/10 08:56:44;;;;;;;19.27;11.10;;;;;;;10.64;66.64;101395.31;4853686;29;20509;-74
2021/10/10 08:59:10;;;;;;;19.63;12.50;;;;;;;10.63;66.77;101389.06;4855047;29;20422;-75
2021/10/10 09:01:38;;;;;;;14.88;10.85;;;;;;;10.62;66.87;101390.13;4853743;29;20414;-74
2021/10/10 09:04:03;;;;;;;15.15;11.02;;;;;;;10.68;67.32;101397.34;4856082;29;20421;-75
2021/10/10 09:06:31;;;;;;;16.33;11.27;;;;;;;10.86;66.35;101393.84;4857701;29;20434;-75
2021/10/10 09:09:27;;;;;;;14.88;11.20;;;;;;;11.00;66.65;101395.34;4854735;29;20478;-75
2021/10/10 09:11:58;;;;;;;18.23;11.93;;;;;;;11.17;66.01;101387.47;4853156;29;20422;-75
2021/10/10 09:14:24;;;;;;;15.25;10.65;;;;;;;11.24;66.15;101399.06;4858895;29;20418;-75
2021/10/10 09:16:50;;;;;;;18.52;11.20;;;;;;;11.19;66.00;101394.34;4839866;29;20423;-75
2021/10/10 09:19:33;;;;;;;16.47;10.47;;;;;;;11.26;66.22;101396.97;4854430;29;20426;-74
2021/10/10 09:22:06;;;;;;;19.75;10.43;;;;;;;11.32;66.23;101393.34;4855622;29;20474;-75
2021/10/10 09:24:31;;;;;;;12.98;10.23;;;;;;;11.41;65.77;101394.69;4860225;29;20425;-75
2021/10/10 09:26:57;;;;;;;14.23;10.30;;;;;;;11.43;64.97;101392.56;4855394;29;20410;-75
2021/10/10 09:29:38;;;;;;;13.90;9.97;;;;;;;11.44;64.83;101397.78;4851115;29;20439;-75
2021/10/10 09:32:13;;;;;;;16.67;10.93;;;;;;;11.46;64.98;101382.09;4858270;29;20505;-75
2021/10/10 09:34:40;;;;;;;17.98;10.82;;;;;;;11.56;65.18;101397.84;4842227;29;20453;-75
2021/10/10 09:37:07;;;;;;;14.73;10.50;;;;;;;11.64;64.94;101388.56;4858870;29;20417;-75
2021/10/10 09:39:46;;;;;;;15.43;10.45;;;;;;;11.73;64.48;101385.31;4859393;29;20418;-75
2021/10/10 09:42:38;;;;;;;15.60;10.85;;;;;;;11.96;63.93;101385.41;4854642;29;20470;-74
2021/10/10 09:45:23;;;;;;;18.13;10.73;;;;;;;12.26;63.39;101388.09;4860151;29;20490;-75
2021/10/10 09:47:59;;;;;;;12.50;8.93;;;;;;;12.75;62.50;101396.88;4840395;29;20417;-75
2021/10/10 09:50:26;;;;;;;16.52;9.63;;;;;;;13.69;60.52;101385.63;4857878;29;20410;-75
2021/10/10 09:52:59;;;;;;;11.73;8.63;;;;;;;14.76;56.36;101383.69;4858343;29;20422;-74
2021/10/10 09:55:24;;;;;;;11.50;8.95;;;;;;;15.01;55.44;101380.50;4860744;29;20911;-75
2021/10/10 09:57:50;;;;;;;10.97;8.87;;;;;;;15.02;55.93;101382.97;4860618;29;20489;-75
2021/10/10 10:00:25;;;;;;;13.45;8.50;;;;;;;15.43;55.00;101378.88;4860586;29;20418;-75
2021/10/10 10:02:59;;;;;;;11.47;8.80;;;;;;;16.10;53.37;101373.88;4860808;29;20542;-75
2021/10/10 10:05:30;;;;;;;13.55;9.48;;;;;;;16.73;50.98;101372.25;4853958;29;20430;-75
2021/10/10 10:07:56;;;;;;;11.02;9.00;;;;;;;17.15;49.82;101372.22;4860957;29;20924;-75
2021/10/10 10:10:25;;;;;;;14.30;8.90;;;;;;;17.57;48.60;101386.69;4860245;29;20894;-75
2021/10/10 10:12:51;;;;;;;15.40;9.70;;;;;;;18.17;47.04;101381.63;4860396;29;20429;-74
2021/10/10 10:15:18;;;;;;;14.27;9.68;;;;;;;18.62;45.08;101382.47;4860407;29;21070;-75
2021/10/10 10:17:45;;;;;;;15.20;9.75;;;;;;;19.26;43.65;101384.56;4860832;29;21208;-75
2021/10/10 10:20:12;;;;;;;15.43;8.97;;;;;;;20.12;41.26;101378.63;4860413;29;20418;-75
2021/10/10 10:22:37;;;;;;;12.80;8.80;;;;;;;20.87;39.55;101377.19;4857354;29;20420;-75
2021/10/10 10:25:05;;;;;;;16.70;11.63;;;;;;;21.13;38.28;101378.59;4860477;29;20432;-75
2021/10/10 10:27:31;;;;;;;11.00;8.88;;;;;;;21.26;38.11;101377.06;4859496;29;20426;-75
2021/10/10 10:29:57;;;;;;;12.90;10.00;;;;;;;20.53;39.51;101377.22;4842793;29;20441;-75
2021/10/10 10:32:25;;;;;;;12.88;9.35;;;;;;;19.15;41.56;101380.19;4860533;29;20411;-75
2021/10/10 10:35:11;;;;;;;12.65;8.85;;;;;;;18.01;44.51;101378.03;4856063;29;20425;-75
2021/10/10 10:37:42;;;;;;;11.67;8.93;;;;;;;17.37;45.64;101383.00;4859930;29;20470;-75
2021/10/10 10:40:20;;;;;;;10.63;9.00;;;;;;;16.99;46.93;101381.47;4860052;29;20815;-75
2021/10/10 10:42:47;;;;;;;11.73;9.30;;;;;;;16.70;47.54;101375.50;4859721;29;20911;-75
2021/10/10 10:45:21;;;;;;;18.13;9.63;;;;;;;16.43;47.99;101388.41;4860017;29;20481;-75
2021/10/10 10:47:48;;;;;;;17.58;9.77;;;;;;;16.22;48.26;101384.66;4859968;29;20673;-75
2021/10/10 10:50:14;;;;;;;13.90;9.20;;;;;;;16.10;48.36;101379.34;4859853;29;20459;-74
2021/10/10 10:52:42;;;;;;;12.00;8.90;;;;;;;15.96;48.93;101380.88;4859148;29;20574;-75
2021/10/10 10:55:25;;;;;;;13.87;9.57;;;;;;;15.83;49.71;101384.03;4855326;29;20490;-75
2021/10/10 10:57:52;;;;;;;11.18;7.95;;;;;;;15.75;49.50;101380.91;4846408;29;20478;-75
2021/10/10 11:00:26;;;;;;;11.70;8.13;;;;;;;15.66;49.76;101383.28;4855188;29;20429;-75
2021/10/10 11:03:21;;;;;;;13.23;7.85;;;;;;;15.56;49.69;101374.97;4857604;29;20437;-74
2021/10/10 11:05:49;;;;;;;11.88;7.65;;;;;;;15.50;50.52;101370.53;4858836;29;20798;-75
2021/10/10 11:08:30;;;;;;;14.60;8.48;;;;;;;15.40;51.50;101368.47;4859514;29;20501;-74
2021/10/10 11:11:09;;;;;;;13.63;8.07;;;;;;;15.35;52.20;101357.47;4859761;29;20515;-74
2021/10/10 11:13:34;;;;;;;12.55;8.43;;;;;;;15.33;52.50;101358.81;4842773;29;20425;-74
2021/10/10 11:16:07;;;;;;;12.57;8.57;;;;;;;15.35;52.55;101362.09;4859585;29;20418;-74
2021/10/10 11:18:33;;;;;;;14.80;9.00;;;;;;;15.29;52.55;101361.22;4839815;29;20974;-74
2021/10/10 11:21:02;;;;;;;11.88;8.57;;;;;;;15.24;52.34;101347.50;4848173;29;20754;-74